Weather observations for the past three days for
Marshfield Airport
Imperial (Metric)
Date Time (edt) Wind (mph) Vis. (mi.) Weather Sky Cond. Temperature (ºF) Relative Humidity Wind Chill (°F) Heat Index (°F) Pressure Precipitation (in)
Air Dwpt 6 hour altimeter (in) sea level (mb) 1 hr 3 hr 6 hr
Max. Min.
05 16:35 SW 15 G 24 10.00 Fair CLR 71.6 48.2 44% 29.78 0.0
05 16:15 S 17 G 26 10.00 Fair CLR 71.6 48.2 44% 29.77 0.0
05 15:55 S 18 G 36 10.00 Fair CLR 73.4 48.2 41% 29.78 0.0
05 15:35 S 16 G 24 10.00 Fair CLR 73.4 50 44% 29.78 0.0
05 15:15 S 17 G 26 10.00 Fair CLR 73.4 50 44% 29.78 0.0
05 14:55 S 16 G 29 10.00 Fair CLR 75.2 50 41% 78 29.78 0.0
05 14:35 SW 15 G 36 10.00 Fair CLR 75.2 48.2 39% 77 29.79 0.0
05 14:15 S 17 G 28 10.00 Fair CLR 75.2 51.8 44% 78 29.8 0.0
05 13:55 S 16 G 26 10.00 Fair CLR 73.4 51.8 47% 29.81 0.0
05 13:35 SW 20 G 25 10.00 Fair CLR 73.4 51.8 47% 29.81 0.0
05 13:15 SW 14 G 25 10.00 Fair CLR 73.4 51.8 47% 29.82 0.0
05 12:55 SW 12 G 24 10.00 Fair CLR 73.4 51.8 47% 29.83 0.0
05 12:35 S 12 G 21 10.00 Fair CLR 71.6 51.8 50% 29.82 0.0
05 12:15 S 14 G 21 10.00 Fair CLR 71.6 53.6 53% 29.83 0.0
05 11:55 S 13 G 21 10.00 Fair CLR 75.2 51.8 44% 78 29.83 0.0
05 11:35 S 9 G 17 10.00 Fair CLR 75.2 50 41% 78 29.83 0.0
05 11:15 S 13 G 20 10.00 Fair CLR 75.2 50 41% 78 29.83 0.0
05 10:55 SW 12 G 21 10.00 Fair CLR 73.4 50 44% 29.83 0.0
05 10:35 SW 12 G 20 10.00 Fair CLR 71.6 50 47% 29.84 0.0
05 10:15 SW 16 G 23 10.00 Fair CLR 69.8 50 50% 29.84 0.0
05 09:55 SW 15 G 24 10.00 Fair CLR 68 50 53% 29.84 0.0
05 09:35 SW 15 G 21 10.00 Fair CLR 66.2 50 56% 29.84 0.0
05 09:15 SW 15 G 22 10.00 Fair CLR 66.2 50 56% 29.85 0.0
05 08:55 SW 12 G 22 10.00 Fair CLR 64.4 50 60% 29.85 0.0
05 08:35 S 13 G 20 10.00 Fair CLR 62.6 50 64% 29.85 0.0
05 08:15 SW 15 G 24 10.00 Fair CLR 60.8 48.2 63% 29.85 0.0
05 07:55 SW 10 10.00 Fair CLR 59 48.2 68% 29.85 0.0
05 07:35 SW 13 G 18 10.00 Fair CLR 57.2 48.2 72% 29.85 0.0
05 07:15 SW 10 G 20 10.00 Fair CLR 55.4 48.2 77% 29.85 0.0
05 06:55 SW 8 10.00 A Few Clouds FEW090 55.4 48.2 77% 29.85 0.0
05 06:35 SW 8 10.00 Fair CLR 53.6 48.2 82% 29.86 0.0
05 06:15 SW 7 10.00 Fair CLR 53.6 48.2 82% 29.85 0.0
05 05:55 SW 12 10.00 A Few Clouds FEW090 51.8 48.2 88% 29.85 0.0
05 05:35 SW 9 G 18 10.00 A Few Clouds FEW090 51.8 48.2 88% 29.85 0.0
05 05:15 SW 8 10.00 A Few Clouds FEW060 51.8 46.4 82% 29.85 0.0
05 04:55 SW 8 10.00 Mostly Cloudy SCT055 BKN065 50 46.4 88% 47 29.86 0.0
05 04:35 SW 6 10.00 Mostly Cloudy FEW042 BKN050 BKN065 50 46.4 88% 48 29.85 0.0
05 04:15 SW 7 10.00 Mostly Cloudy SCT037 SCT049 BKN060 50 46.4 88% 48 29.86 0.0
05 03:55 SW 8 10.00 Mostly Cloudy SCT039 BKN046 BKN055 51.8 46.4 82% 29.86 0.0
05 03:35 SW 7 10.00 Mostly Cloudy FEW034 SCT043 BKN050 51.8 46.4 82% 29.87 0.0
05 03:15 SW 6 10.00 Mostly Cloudy FEW035 SCT040 BKN055 51.8 46.4 82% 29.86 0.0
05 02:55 SW 7 G 13 10.00 Partly Cloudy SCT038 SCT046 SCT065 51.8 46.4 82% 29.86 0.0
05 02:35 SW 6 10.00 Mostly Cloudy SCT036 BKN044 BKN055 51.8 46.4 82% 29.86 0.0
05 02:15 SW 7 G 17 10.00 Mostly Cloudy FEW034 BKN041 BKN050 51.8 44.6 77% 29.86 0.0
05 01:55 Vrbl 7 G 14 10.00 Mostly Cloudy SCT038 BKN044 BKN049 53.6 44.6 72% 29.86 0.0
05 01:35 SW 8 G 17 10.00 Mostly Cloudy SCT038 BKN044 BKN055 53.6 44.6 72% 29.86 0.0
05 01:15 SW 10 G 18 10.00 Mostly Cloudy BKN040 BKN047 BKN055 53.6 44.6 72% 29.86 0.0
05 00:55 SW 8 G 17 10.00 Overcast SCT036 BKN041 OVC055 53.6 44.6 72% 29.86 0.0
05 00:35 SW 12 G 17 10.00 Mostly Cloudy BKN035 BKN045 53.6 44.6 72% 29.87 0.0
05 00:15 SW 12 10.00 Mostly Cloudy BKN035 BKN040 BKN050 53.6 44.6 72% 29.87 0.0
04 23:55 SW 9 G 17 10.00 Mostly Cloudy BKN034 BKN039 BKN055 53.6 44.6 72% 29.87 0.0
04 23:35 SW 10 G 23 10.00 Overcast BKN035 BKN047 OVC055 53.6 44.6 72% 29.86 0.0
04 23:15 SW 12 G 23 10.00 Mostly Cloudy BKN032 BKN040 BKN050 53.6 42.8 67% 29.87 0.0
04 22:55 SW 12 G 21 10.00 Mostly Cloudy BKN031 BKN039 BKN049 53.6 42.8 67% 29.87 0.0
04 22:35 SW 14 G 22 10.00 Overcast BKN030 BKN036 OVC047 55.4 42.8 63% 29.87 0.0
04 22:15 SW 14 G 22 10.00 Overcast FEW027 BKN031 OVC055 55.4 42.8 63% 29.87 0.0
04 21:55 SW 12 G 18 10.00 Overcast BKN030 BKN040 OVC050 55.4 42.8 63% 29.87 0.0
04 21:35 SW 12 G 23 10.00 Overcast BKN030 BKN042 OVC055 55.4 42.8 63% 29.86 0.0
04 21:15 SW 15 G 23 10.00 Overcast SCT028 BKN042 OVC060 57.2 42.8 59% 29.85 0.0
04 20:55 SW 10 G 24 10.00 Overcast SCT043 BKN048 OVC055 57.2 42.8 59% 29.84 0.0
04 20:35 SW 18 G 32 10.00 Mostly Cloudy SCT045 BKN055 BKN070 57.2 41 55% 29.83 0.0
04 20:15 SW 15 G 24 10.00 Fair CLR 57.2 39.2 51% 29.82 0.0
04 19:55 SW 15 G 25 10.00 Fair CLR 59 39.2 48% 29.81 0.0
04 19:35 SW 12 G 28 10.00 Fair CLR 59 37.4 45% 29.81 0.0
04 19:15 SW 15 G 26 10.00 Fair CLR 60.8 37.4 42% 29.8 0.0
04 18:55 SW 17 G 28 10.00 Fair CLR 62.6 37.4 39% 29.79 0.0
04 18:35 SW 13 G 29 10.00 Fair CLR 62.6 37.4 39% 29.78 0.0
04 18:15 SW 22 G 32 10.00 Fair and Breezy CLR 64.4 37.4 37% 29.77 0.0
04 17:55 SW 18 G 35 10.00 Fair CLR 66.2 37.4 35% 29.77 0.0
04 17:35 SW 17 G 32 10.00 Fair CLR 66.2 37.4 35% 29.77 0.0
04 17:15 SW 16 G 31 10.00 Fair CLR 66.2 35.6 32% 29.77 0.0
04 16:55 SW 18 G 29 10.00 Fair CLR 68 35.6 30% 29.76 0.0
04 16:35 SW 17 G 32 10.00 Fair CLR 68 35.6 30% 29.76 0.0
04 16:15 SW 20 G 32 10.00 Fair CLR 68 33.8 28% 29.76 0.0
04 15:55 SW 17 G 32 10.00 Fair CLR 68 33.8 28% 29.76 0.0
04 15:35 SW 23 G 33 10.00 Fair and Breezy CLR 69.8 33.8 27% 29.76 0.0
04 15:15 SW 22 G 33 10.00 Fair and Breezy CLR 69.8 33.8 27% 29.76 0.0
04 14:55 SW 22 G 33 10.00 Fair and Breezy CLR 69.8 32 25% 29.76 0.0
04 14:35 SW 16 G 35 10.00 Fair CLR 69.8 28.4 21% 29.77 0.0
04 14:15 W 15 G 28 10.00 Fair CLR 69.8 30.2 23% 29.77 0.0
04 13:55 SW 16 G 35 10.00 Fair CLR 69.8 30.2 23% 29.77 0.0
04 13:35 SW 14 G 33 10.00 Fair CLR 69.8 30.2 23% 29.77 0.0
04 13:15 SW 21 G 37 10.00 Fair and Breezy CLR 68 30.2 24% 29.77 0.0
04 12:55 SW 15 G 30 10.00 Fair CLR 68 30.2 24% 29.78 0.0
04 12:35 SW 18 G 33 10.00 Fair CLR 68 30.2 24% 29.79 0.0
04 12:15 W 14 G 25 10.00 Fair CLR 68 32 26% 29.8 0.0
04 11:55 SW 16 G 26 10.00 Fair CLR 68 32 26% 29.8 0.0
04 11:35 W 13 G 23 10.00 Fair CLR 68 32 26% 29.81 0.0
04 11:15 W 16 G 33 10.00 Fair CLR 66.2 30.2 26% 29.81 0.0
04 10:55 SW 16 G 25 0.00 Fair CLR 66.2 30.2 26% 29.81 0.0
04 10:35 SW 16 G 24 10.00 Fair CLR 64.4 32 30% 29.83 0.0
04 10:15 SW 12 G 21 10.00 Fair CLR 64.4 33.8 32% 29.83 0.0
04 09:55 SW 13 G 20 10.00 Fair CLR 62.6 32 32% 29.84 0.0
04 09:35 W 8 G 18 10.00 Fair CLR 60.8 32 34% 29.85 0.0
04 09:15 W 12 10.00 A Few Clouds FEW120 59 32 36% 29.85 0.0
04 08:55 W 10 G 20 10.00 A Few Clouds FEW120 59 32 36% 29.85 0.0
04 08:35 SW 13 G 21 10.00 Fair CLR 57.2 32 39% 29.86 0.0
04 08:15 SW 12 10.00 Fair CLR 53.6 32 44% 29.86 0.0
04 07:55 Vrbl 5 G 18 10.00 Partly Cloudy SCT090 51.8 32 47% 29.86 0.0
04 07:35 SW 8 G 16 10.00 Mostly Cloudy BKN090 51.8 32 47% 29.86 0.0
04 07:15 SW 7 G 14 10.00 Partly Cloudy SCT095 51.8 32 47% 29.86 0.0
04 06:55 SW 7 10.00 Overcast SCT075 OVC095 48.2 32 54% 46 29.87 0.0
04 06:35 SW 6 10.00 Overcast OVC075 48.2 30.2 50% 46 29.86 0.0
04 06:15 SW 6 10.00 Overcast OVC075 48.2 30.2 50% 46 29.86 0.0
04 05:55 SW 5 10.00 Overcast OVC070 46.4 30.2 53% 45 29.86 0.0
04 05:35 W 5 10.00 Overcast BKN065 OVC095 46.4 28.4 50% 45 29.86 0.0
04 05:15 W 5 10.00 Overcast OVC095 46.4 28.4 50% 45 29.86 0.0
04 04:55 Calm 10.00 Overcast SCT070 OVC100 46.4 28.4 50% 29.86 0.0
04 04:35 SW 5 10.00 Overcast BKN065 OVC075 46.4 28.4 50% 45 29.86 0.0
04 04:15 SW 5 10.00 Overcast SCT065 OVC075 46.4 28.4 50% 45 29.85 0.0
04 03:55 SW 3 10.00 Overcast SCT065 BKN075 OVC095 46.4 28.4 50% 29.85 0.0
04 03:35 W 5 10.00 Overcast BKN065 OVC075 44.6 28.4 53% 43 29.85 0.0
04 03:15 W 3 10.00 Overcast OVC065 44.6 28.4 53% 29.85 0.0
04 02:55 W 5 10.00 Overcast OVC070 44.6 28.4 53% 43 29.85 0.0
04 02:35 Vrbl 5 10.00 Overcast OVC070 42.8 28.4 57% 41 29.85 0.0
04 02:15 W 5 10.00 Overcast BKN080 OVC090 42.8 28.4 57% 41 29.85 0.0
04 01:55 W 5 10.00 Overcast SCT065 OVC080 41 28.4 61% 38 29.84 0.0
04 01:35 W 5 10.00 Overcast SCT060 OVC070 39.2 28.4 65% 36 29.85 0.0
04 01:15 W 3 10.00 Mostly Cloudy SCT070 BKN080 37.4 28.4 70% 29.85 0.0
04 00:55 SW 5 10.00 Mostly Cloudy FEW040 FEW048 BKN085 35.6 28.4 75% 32 29.84 0.0
04 00:35 W 3 10.00 Mostly Cloudy FEW034 FEW042 BKN047 35.6 28.4 75% 29.85 0.0
04 00:15 W 3 10.00 Mostly Cloudy FEW038 SCT044 BKN055 35.6 28.4 75% 29.85 0.0
03 23:55 Calm 10.00 Mostly Cloudy FEW039 SCT050 BKN065 35.6 28.4 75% 29.84 0.0
03 23:35 W 3 10.00 Mostly Cloudy FEW033 SCT050 BKN065 37.4 28.4 70% 29.84 0.0
03 23:15 Calm 10.00 Mostly Cloudy FEW035 SCT044 BKN070 37.4 28.4 70% 29.84 0.0
03 22:55 Calm 10.00 Mostly Cloudy FEW036 BKN044 BKN050 39.2 28.4 65% 29.84 0.0
03 22:35 W 3 10.00 Mostly Cloudy SCT040 BKN046 BKN050 39.2 26.6 61% 29.83 0.0
03 22:15 SW 3 10.00 Mostly Cloudy SCT040 BKN050 41 26.6 57% 29.83 0.0
03 21:55 Calm 10.00 Partly Cloudy FEW044 SCT050 41 28.4 61% 29.82 0.0
03 21:35 Calm 10.00 Partly Cloudy FEW043 SCT050 SCT060 42.8 26.6 53% 29.82 0.0
03 21:15 Calm 10.00 A Few Clouds FEW040 FEW049 46.4 24.8 43% 29.82 0.0
03 20:55 Vrbl 5 10.00 Mostly Cloudy FEW040 SCT049 BKN080 48.2 24.8 40% 47 29.81 0.0
03 20:35 Calm 10.00 Mostly Cloudy SCT070 BKN080 50 23 35% 29.8 0.0
03 20:15 W 6 10.00 Partly Cloudy SCT070 SCT080 50 23 35% 48 29.79 0.0
03 19:55 Vrbl 7 G 22 10.00 Partly Cloudy SCT075 51.8 23 32% 29.78 0.0
03 19:35 NW 12 G 22 10.00 Overcast OVC075 51.8 23 32% 29.77 0.0
03 19:15 NW 8 G 18 10.00 Overcast OVC075 51.8 23 32% 29.76 0.0
03 18:55 Calm 10.00 Overcast OVC075 53.6 23 30% 29.75 0.0
03 18:35 NW 9 G 22 10.00 Overcast OVC075 53.6 23 30% 29.74 0.0
03 18:15 NW 14 G 22 10.00 Overcast OVC080 53.6 23 30% 29.73 0.0
03 17:55 NW 12 G 23 10.00 Overcast OVC075 53.6 23 30% 29.72 0.0
03 17:35 NW 13 G 20 10.00 Overcast OVC080 53.6 24.8 33% 29.71 0.0
03 17:15 NW 8 G 23 10.00 Overcast OVC080 53.6 24.8 33% 29.71 0.0
03 16:55 NW 9 G 22 10.00 Overcast SCT065 OVC080 53.6 26.6 35% 29.7 0.0
03 16:35 NW 12 G 21 10.00 Overcast BKN065 BKN075 OVC090 53.6 28.4 38% 29.69 0.0
03 16:15 NW 12 G 17 10.00 Overcast SCT060 SCT070 OVC090 53.6 28.4 38% 29.69 0.0
03 15:55 NW 14 G 21 10.00 Overcast OVC090 53.6 30.2 41% 29.69 0.0
03 15:35 NW 12 G 23 10.00 Overcast FEW060 SCT070 OVC090 53.6 30.2 41% 29.69 0.0
03 14:55 N 10 G 17 10.00 Overcast FEW050 BKN060 OVC085 51.8 35.6 54% 29.7 0.0
03 14:35 NW 9 G 20 10.00 Overcast BKN055 OVC085 51.8 33.8 50% 29.7 0.0
03 14:15 Vrbl 7 G 15 10.00 Overcast SCT047 OVC055 50 32 50% 48 29.7 0.0
03 13:55 NW 9 G 18 10.00 Overcast BKN040 OVC046 50 33.8 54% 47 29.7 0.0
03 13:35 N 13 G 23 10.00 Overcast BKN037 OVC047 50 33.8 54% 46 29.7 0.0
03 13:15 NW 9 G 20 10.00 Overcast OVC033 48.2 35.6 62% 45 29.7 0.0
03 12:55 Vrbl 7 G 22 10.00 Overcast FEW025 OVC032 46.4 39.2 76% 43 29.7 0.0
03 12:35 NW 9 G 24 10.00 Overcast OVC032 50 37.4 62% 47 29.68 0.0
03 12:15 NW 13 G 18 10.00 Overcast SCT030 BKN035 OVC041 50 37.4 62% 46 29.68 0.0
03 11:55 NW 12 G 18 10.00 Overcast SCT024 BKN028 OVC037 50 37.4 62% 46 29.67 0.0
03 11:35 Vrbl 7 G 18 10.00 Overcast OVC023 48.2 37.4 66% 46 29.68 0.0
03 11:15 NW 13 G 20 10.00 Overcast BKN022 BKN029 OVC070 48.2 39.2 71% 43 29.68 0.0
03 10:55 W 13 G 20 10.00 Overcast BKN022 BKN028 OVC070 48.2 39.2 71% 43 29.68 0.0
03 10:35 NW 9 10.00 Overcast OVC020 46.4 39.2 76% 42 29.68 0.0
03 10:15 NW 10 10.00 Overcast OVC019 46.4 39.2 76% 42 29.68 0.0
03 09:55 NW 9 G 21 10.00 Overcast OVC019 46.4 39.2 76% 42 29.68 0.0
03 09:35 NW 10 G 16 10.00 Overcast BKN018 OVC026 46.4 39.2 76% 42 29.68 0.0
03 09:15 Vrbl 7 G 17 10.00 Overcast OVC019 46.4 39.2 76% 43 29.68 0.0
03 08:55 Vrbl 7 G 16 10.00 Mostly Cloudy BKN022 BKN028 46.4 39.2 76% 43 29.69 0.0
03 08:35 NW 9 G 16 10.00 Mostly Cloudy BKN019 BKN025 46.4 39.2 76% 42 29.69 0.0
03 08:15 Vrbl 5 G 13 10.00 Mostly Cloudy BKN020 BKN120 44.6 37.4 76% 43 29.7 0.0
03 07:55 Vrbl 6 G 15 10.00 Partly Cloudy FEW020 SCT120 44.6 37.4 76% 42 29.71 0.0
03 07:35 NW 6 G 13 10.00 Mostly Cloudy FEW070 BKN120 44.6 37.4 76% 42 29.71 0.0
03 07:15 Vrbl 5 10.00 Partly Cloudy FEW021 SCT070 SCT080 46.4 39.2 76% 45 29.71 0.0
03 06:55 Vrbl 3 G 13 10.00 Partly Cloudy SCT080 SCT100 46.4 39.2 76% 29.72 0.0
03 06:35 Calm 10.00 Mostly Cloudy BKN075 46.4 39.2 76% 29.71 0.0
03 06:15 Vrbl 6 10.00 Overcast BKN070 OVC100 46.4 39.2 76% 44 29.72 0.0
03 05:55 Vrbl 5 G 12 10.00 Overcast BKN070 BKN075 OVC100 46.4 39.2 76% 45 29.72 0.0
03 05:35 NW 9 10.00 Overcast OVC070 46.4 39.2 76% 42 29.71 0.0
03 05:15 Vrbl 7 G 16 10.00 Overcast BKN060 OVC070 46.4 39.2 76% 43 29.72 0.0
03 04:55 NW 7 10.00 Overcast OVC055 46.4 39.2 76% 43 29.73 0.0
03 04:35 Vrbl 6 G 13 10.00 Overcast FEW040 BKN055 OVC065 46.4 41 82% 44 29.73 0.0
03 04:15 Vrbl 7 10.00 Overcast BKN038 OVC046 46.4 41 82% 43 29.73 0.0
03 03:55 Vrbl 6 G 13 10.00 Light Rain FEW029 SCT037 OVC044 46.4 41 82% 44 29.75 0.0
03 03:35 NW 7 G 14 10.00 Light Drizzle BKN047 OVC060 48.2 42.8 82% 46 29.75 0.0
03 03:15 Vrbl 7 G 13 10.00 Overcast OVC060 48.2 42.8 82% 46 29.76 0.0
03 02:55 Vrbl 5 10.00 Overcast OVC060 48.2 44.6 87% 47 29.76 0.0
03 02:35 Calm 10.00 Overcast BKN060 OVC070 48.2 44.6 87% 29.77 0.0
03 02:15 NW 6 10.00 Overcast FEW027 SCT055 OVC075 48.2 46.4 94% 46 29.77 0.0
03 01:55 Calm 10.00 Overcast FEW027 FEW060 OVC070 48.2 46.4 94% 29.79 0.0
03 01:35 Calm 10.00 Overcast FEW050 BKN055 OVC070 48.2 46.4 94% 29.78 0.0
03 01:15 Calm 10.00 Overcast FEW036 OVC050 48.2 48.2 100% 29.79 0.0
03 00:55 Calm 9.00 Overcast FEW028 BKN045 OVC050 48.2 48.2 100% 29.8 0.0 0.02
03 00:35 Calm 8.00 Light Rain FEW037 OVC044 48.2 48.2 100% 29.81 0.0
03 00:15 Calm 10.00 Mostly Cloudy FEW007 SCT020 BKN038 48.2 48.2 100% 29.82 0.0
02 23:55 Calm 9.00 Light Drizzle BKN008 OVC019 50 48.2 94% 29.82 0.0
02 23:35 Calm 10.00 Overcast OVC006 50 48.2 94% 29.83 0.0
02 23:15 Calm 10.00 Overcast OVC004 50 48.2 94% 29.83 0.0
02 22:55 Calm 10.00 Overcast BKN005 BKN035 OVC045 50 48.2 94% 29.83 0.0 0.01
02 22:35 Calm 8.00 Overcast SCT005 SCT036 OVC045 50 48.2 94% 29.83 0.0
02 22:15 Calm 10.00 Overcast FEW034 BKN047 OVC060 50 48.2 94% 29.84 0.0
02 21:55 Calm 7.00 Light Rain FEW033 BKN048 OVC060 50 48.2 94% 29.84 0.0 0.01
02 21:35 S 6 7.00 Light Rain FEW036 BKN049 OVC055 50 48.2 94% 48 29.84 0.0
02 21:15 S 3 7.00 Overcast FEW035 BKN050 OVC055 50 46.4 88% 29.84 0.0
02 20:55 Vrbl 5 9.00 Light Drizzle FEW035 OVC060 50 46.4 88% 49 29.85 0.0
02 20:35 S 7 7.00 Overcast FEW020 BKN034 OVC055 51.8 46.4 82% 29.85 0.0
02 20:15 SW 6 10.00 Overcast OVC055 51.8 44.6 77% 29.85 0.0
02 19:55 Calm 10.00 Overcast OVC050 51.8 44.6 77% 29.84 0.0
02 19:35 Calm 10.00 Overcast OVC055 51.8 44.6 77% 29.84 0.0
02 19:15 SW 6 0.00 Overcast OVC055 51.8 44.6 77% 29.84 0.0
02 18:55 Vrbl 5 10.00 Overcast OVC055 51.8 44.6 77% 29.84 0.0
02 18:35 SW 3 10.00 Overcast OVC060 53.6 42.8 67% 29.83 0.0
02 18:15 Vrbl 5 G 13 10.00 Overcast OVC055 51.8 44.6 77% 29.83 0.0
02 17:55 S 8 10.00 Overcast BKN047 OVC055 53.6 42.8 67% 29.83 0.0
02 17:35 S 13 10.00 Overcast OVC047 53.6 42.8 67% 29.83 0.0
02 17:15 SW 12 G 17 10.00 Overcast OVC049 53.6 42.8 67% 29.84 0.0
02 16:55 SW 8 G 16 10.00 Overcast OVC045 53.6 42.8 67% 29.84 0.0
Date Time (edt) Wind (mph) Vis. (mi.) Weather Sky Cond. Air Dwpt Max. Min. Relative Humidity Wind Chill (°F) Heat Index (°F) altimeter (in) sea level (mb) 1 hr 3 hr 6 hr
6 hour
Temperature (ºF) Pressure Precipitation (in)